Ashboro, Indiana
Current Conditions -  °F | °C
As of 4:53 AM on Monday 20 Oct 2014 (Local Time) from KHUF Reporting Station
Light Rain Light Rain  
Wind Chill: 50°   Ceiling: 10000
Heat Index: 50°   Visibility: 10mi
Dew Point: 45°   Wind: 9mph
Humidity: 83%   Direction: 200°SSW
Pressure: 29.98"   Gusts: NA
Location:  39.3787°N, 87.0992°W
Report Text: KHUF 200853Z 20008KT 10SM -RA FEW034 SCT080 OVC100 10/07 A2998 RMK AO2 RAB44 SLP151 P0000 60000 T01000072 58018
Loading
Personal Weather Stations






























Interactive Weather Map
Tropical Storm Tracking
New forecast layout! Learn more

10-Day Weather Forecast

Advertisements
Track Severe Weather on mobile